createdAt,value
2022-10-14T00:01:15.999Z,14.60
2022-10-14T00:04:02.843Z,14.60
2022-10-14T00:06:49.261Z,14.70
2022-10-14T00:09:35.735Z,14.70
2022-10-14T00:12:22.295Z,14.60
2022-10-14T00:15:09.732Z,14.60
2022-10-14T00:17:57.720Z,14.60
2022-10-14T00:20:44.525Z,14.60
2022-10-14T00:23:30.978Z,14.70
2022-10-14T00:26:20.174Z,14.60
2022-10-14T00:29:09.337Z,14.60
2022-10-14T00:31:56.081Z,14.60
2022-10-14T00:34:44.060Z,14.60
2022-10-14T00:37:30.657Z,14.50
2022-10-14T00:40:17.363Z,14.50
2022-10-14T00:43:03.991Z,14.50
2022-10-14T00:45:50.494Z,14.50
2022-10-14T00:48:37.219Z,14.50
2022-10-14T00:51:25.067Z,14.50
2022-10-14T00:54:14.668Z,14.50
2022-10-14T00:57:02.349Z,14.50
2022-10-14T00:59:49.319Z,14.50
2022-10-14T01:02:35.998Z,14.50
2022-10-14T01:05:22.812Z,14.50
2022-10-14T01:08:15.134Z,14.50
2022-10-14T01:11:10.143Z,14.40
2022-10-14T01:14:07.866Z,14.50
2022-10-14T01:16:59.915Z,14.50
2022-10-14T01:20:05.753Z,14.50
2022-10-14T01:23:03.712Z,14.50
2022-10-14T01:25:58.913Z,14.50
2022-10-14T01:28:53.216Z,14.50
2022-10-14T01:31:46.849Z,14.50
2022-10-14T01:34:39.510Z,14.50
2022-10-14T01:37:29.260Z,14.50
2022-10-14T01:40:24.051Z,14.50
2022-10-14T01:43:13.723Z,14.50
2022-10-14T01:46:03.315Z,14.50
2022-10-14T01:48:54.456Z,14.50
2022-10-14T01:51:47.241Z,14.40
2022-10-14T01:54:38.872Z,14.50
2022-10-14T01:57:30.098Z,14.40
2022-10-14T02:00:17.300Z,14.50
2022-10-14T02:03:04.091Z,14.50
2022-10-14T02:05:59.460Z,14.40
2022-10-14T02:09:00.170Z,14.40
2022-10-14T02:11:57.176Z,14.40
2022-10-14T02:14:51.840Z,14.40
2022-10-14T02:17:49.283Z,14.30
2022-10-14T02:20:41.442Z,14.40
2022-10-14T02:23:33.328Z,14.40
2022-10-14T02:26:20.416Z,14.30
2022-10-14T02:29:07.835Z,14.20
2022-10-14T02:31:55.736Z,14.30
2022-10-14T02:34:46.057Z,14.20
2022-10-14T02:37:34.784Z,14.20
2022-10-14T02:40:28.982Z,14.10
2022-10-14T02:43:15.842Z,14.20
2022-10-14T02:46:04.244Z,14.10
2022-10-14T02:48:50.914Z,14.10
2022-10-14T02:51:37.402Z,14.10
2022-10-14T02:54:24.021Z,13.90
2022-10-14T02:57:12.083Z,14.00
2022-10-14T02:59:58.514Z,14.00
2022-10-14T03:02:45.180Z,13.90
2022-10-14T03:05:31.698Z,14.00
2022-10-14T03:08:18.751Z,14.10
2022-10-14T03:11:05.264Z,14.10
2022-10-14T03:13:53.323Z,14.00
2022-10-14T03:16:40.173Z,14.10
2022-10-14T03:19:26.723Z,14.10
2022-10-14T03:22:13.684Z,14.00
2022-10-14T03:25:00.017Z,14.10
2022-10-14T03:27:46.518Z,14.10
2022-10-14T03:30:34.530Z,14.00
2022-10-14T03:33:22.805Z,14.10
2022-10-14T03:36:13.232Z,14.10
2022-10-14T03:39:00.060Z,14.00
2022-10-14T03:41:47.285Z,14.10
2022-10-14T03:44:33.667Z,14.00
2022-10-14T03:47:21.529Z,14.00
2022-10-14T03:50:08.427Z,14.00
2022-10-14T03:52:55.859Z,14.00
2022-10-14T03:55:42.888Z,14.00
2022-10-14T03:58:29.806Z,13.90
2022-10-14T04:01:16.478Z,13.80
2022-10-14T04:04:04.622Z,13.80
2022-10-14T04:06:51.340Z,13.80
2022-10-14T04:09:37.783Z,13.70
2022-10-14T04:12:24.409Z,13.70
2022-10-14T04:15:11.635Z,13.70
2022-10-14T04:17:58.512Z,13.70
2022-10-14T04:20:46.821Z,13.70
2022-10-14T04:23:33.594Z,13.70
2022-10-14T04:26:20.053Z,13.60
2022-10-14T04:29:06.616Z,13.60
2022-10-14T04:31:52.983Z,13.50
2022-10-14T04:34:39.461Z,13.50
2022-10-14T04:37:27.302Z,13.40
2022-10-14T04:40:14.191Z,13.40
2022-10-14T04:43:01.005Z,13.40
2022-10-14T04:45:48.128Z,13.40
2022-10-14T04:48:34.538Z,13.40
2022-10-14T04:51:21.780Z,13.40
2022-10-14T04:54:10.193Z,13.40
2022-10-14T04:56:57.079Z,13.40
2022-10-14T04:59:43.539Z,13.40
2022-10-14T05:02:30.020Z,13.30
2022-10-14T05:05:16.618Z,13.30
2022-10-14T05:08:03.440Z,13.30
2022-10-14T05:10:51.535Z,13.40
2022-10-14T05:13:38.110Z,13.40
2022-10-14T05:16:24.935Z,13.30
2022-10-14T05:19:11.505Z,13.30
2022-10-14T05:21:57.946Z,13.30
2022-10-14T05:24:44.467Z,13.30
2022-10-14T05:27:32.456Z,13.30
2022-10-14T05:30:19.424Z,13.20
2022-10-14T05:33:06.118Z,13.20
2022-10-14T05:36:00.091Z,13.10
2022-10-14T05:38:46.716Z,13.10
2022-10-14T05:41:33.260Z,13.00
2022-10-14T05:44:21.068Z,13.00
2022-10-14T05:47:07.672Z,12.90
2022-10-14T05:49:54.167Z,12.90
2022-10-14T05:52:40.980Z,12.90
2022-10-14T05:55:27.660Z,12.90
2022-10-14T05:58:14.436Z,12.90
2022-10-14T06:01:03.107Z,12.90
2022-10-14T06:03:51.443Z,12.80
2022-10-14T06:06:38.320Z,12.90
2022-10-14T06:09:25.031Z,12.90
2022-10-14T06:12:11.781Z,13.00
2022-10-14T06:14:58.468Z,13.00
2022-10-14T06:17:46.386Z,13.00
2022-10-14T06:20:33.034Z,13.00
2022-10-14T06:23:19.632Z,13.10
2022-10-14T06:26:08.937Z,13.20
2022-10-14T06:28:55.598Z,13.20
2022-10-14T06:31:42.488Z,13.20
2022-10-14T06:34:30.235Z,13.20
2022-10-14T06:37:16.993Z,13.10
2022-10-14T06:40:04.017Z,13.20
2022-10-14T06:42:50.534Z,13.20
2022-10-14T06:45:37.172Z,13.20
2022-10-14T06:48:23.564Z,13.20
2022-10-14T06:51:11.640Z,13.20
2022-10-14T06:53:58.400Z,13.20
2022-10-14T06:56:44.764Z,13.30
2022-10-14T06:59:31.271Z,13.30
2022-10-14T07:02:17.745Z,13.20
2022-10-14T07:05:04.184Z,13.20
2022-10-14T07:07:52.335Z,13.20
2022-10-14T07:10:39.111Z,13.20
2022-10-14T07:13:25.632Z,13.20
2022-10-14T07:16:12.451Z,13.20
2022-10-14T07:18:59.330Z,13.20
2022-10-14T07:21:46.665Z,13.20
2022-10-14T07:24:34.530Z,13.20
2022-10-14T07:27:21.500Z,13.20
2022-10-14T07:30:11.493Z,13.30
2022-10-14T07:33:00.677Z,13.50
2022-10-14T07:35:47.013Z,13.60
2022-10-14T07:38:33.523Z,13.60
2022-10-14T07:41:24.600Z,13.70
2022-10-14T07:44:16.745Z,13.80
2022-10-14T07:47:03.357Z,13.80
2022-10-14T07:49:49.764Z,13.90
2022-10-14T07:52:36.245Z,14.00
2022-10-14T07:55:22.866Z,14.10
2022-10-14T07:58:10.623Z,14.10
2022-10-14T08:00:58.327Z,14.20
2022-10-14T08:03:45.754Z,14.20
2022-10-14T08:06:32.307Z,14.30
2022-10-14T08:09:19.904Z,14.40
2022-10-14T08:12:07.145Z,14.40
2022-10-14T08:14:58.098Z,14.50
2022-10-14T08:17:44.627Z,14.50
2022-10-14T08:20:32.317Z,14.60
2022-10-14T08:23:19.969Z,14.60
2022-10-14T08:26:19.116Z,14.70
2022-10-14T08:29:09.094Z,14.80
2022-10-14T08:31:57.331Z,14.80
2022-10-14T08:34:44.060Z,14.80
2022-10-14T08:37:30.333Z,14.70
2022-10-14T08:40:18.164Z,14.80
2022-10-14T08:43:16.700Z,14.80
2022-10-14T08:46:13.868Z,14.80
2022-10-14T08:49:07.323Z,14.80
2022-10-14T08:51:58.984Z,14.90
2022-10-14T08:54:49.236Z,14.90
2022-10-14T08:57:43.975Z,14.90
2022-10-14T09:00:34.555Z,15.00
2022-10-14T09:03:23.900Z,15.00
2022-10-14T09:06:19.656Z,15.00
2022-10-14T09:09:10.956Z,15.10
2022-10-14T09:12:01.609Z,15.10
2022-10-14T09:14:55.572Z,15.20
2022-10-14T09:17:47.613Z,15.20
2022-10-14T09:20:34.812Z,15.20
2022-10-14T09:23:24.390Z,15.20
2022-10-14T09:26:17.430Z,15.30
2022-10-14T09:29:03.944Z,15.30
2022-10-14T09:31:50.584Z,15.20
2022-10-14T09:34:39.795Z,15.20
2022-10-14T09:37:28.842Z,15.30
2022-10-14T09:40:21.275Z,15.30
2022-10-14T09:43:16.625Z,15.30
2022-10-14T09:46:07.242Z,15.40
2022-10-14T09:48:55.120Z,15.50
2022-10-14T09:51:44.699Z,15.50
2022-10-14T09:54:32.893Z,15.50
2022-10-14T09:57:21.651Z,15.60
2022-10-14T10:00:25.821Z,15.60
2022-10-14T10:03:27.177Z,15.80
2022-10-14T10:06:15.965Z,15.90
2022-10-14T10:09:02.901Z,16.00
2022-10-14T10:11:49.815Z,16.10
2022-10-14T10:14:37.572Z,16.10
2022-10-14T10:17:24.464Z,16.10
2022-10-14T10:20:28.250Z,16.00
2022-10-14T10:23:26.092Z,16.10
2022-10-14T10:26:18.668Z,16.20
2022-10-14T10:29:06.711Z,16.20
2022-10-14T10:32:02.233Z,16.30
2022-10-14T10:35:09.779Z,16.20
2022-10-14T10:38:06.757Z,16.20
2022-10-14T10:41:07.512Z,16.20
2022-10-14T10:44:19.618Z,16.30
2022-10-14T10:47:20.697Z,16.40
2022-10-14T10:50:33.802Z,16.60
2022-10-14T10:53:41.490Z,16.60
2022-10-14T10:56:34.345Z,16.70
2022-10-14T10:59:39.470Z,16.70
2022-10-14T11:02:56.010Z,16.60
2022-10-14T11:05:53.004Z,16.60
2022-10-14T11:09:15.688Z,16.60
2022-10-14T11:12:13.706Z,16.60
2022-10-14T11:15:13.992Z,16.70
2022-10-14T11:18:04.767Z,16.60
2022-10-14T11:21:04.902Z,16.70
2022-10-14T11:24:02.007Z,16.70
2022-10-14T11:27:04.012Z,16.70
2022-10-14T11:30:08.863Z,16.60
2022-10-14T11:33:14.883Z,16.70
2022-10-14T11:36:13.252Z,16.80
2022-10-14T11:39:23.283Z,16.90
2022-10-14T11:42:25.734Z,16.90
2022-10-14T11:45:30.447Z,17.00
2022-10-14T11:48:33.638Z,17.10
2022-10-14T11:51:24.403Z,17.20
2022-10-14T11:54:15.469Z,17.30
2022-10-14T11:57:05.795Z,17.10
2022-10-14T11:59:54.155Z,17.20
2022-10-14T12:02:46.110Z,17.30
2022-10-14T12:05:40.141Z,17.40
2022-10-14T12:08:35.694Z,17.30
2022-10-14T12:11:30.722Z,17.20
2022-10-14T12:14:22.557Z,17.30
2022-10-14T12:17:18.774Z,17.30
2022-10-14T12:20:27.566Z,17.40
2022-10-14T12:23:24.332Z,17.40
2022-10-14T12:26:19.821Z,17.40
2022-10-14T12:29:07.311Z,17.40
2022-10-14T12:32:10.559Z,17.40
2022-10-14T12:34:58.219Z,17.40
2022-10-14T12:37:52.161Z,17.30
2022-10-14T12:40:40.471Z,17.30
2022-10-14T12:43:29.744Z,17.40
2022-10-14T12:46:16.882Z,17.40
2022-10-14T12:49:04.628Z,17.50
2022-10-14T12:51:55.831Z,17.50
2022-10-14T12:54:49.569Z,17.50
2022-10-14T12:57:41.492Z,17.50
2022-10-14T13:00:31.892Z,17.60
2022-10-14T13:03:21.063Z,17.60
2022-10-14T13:06:30.985Z,17.60
2022-10-14T13:09:42.093Z,17.60
2022-10-14T13:12:45.068Z,17.60
2022-10-14T13:15:50.530Z,17.60
2022-10-14T13:18:52.706Z,17.50
2022-10-14T13:21:53.998Z,17.50
2022-10-14T13:24:41.655Z,17.50
2022-10-14T13:27:37.807Z,17.60
2022-10-14T13:30:35.744Z,17.60
2022-10-14T13:33:27.963Z,17.60
2022-10-14T13:36:19.393Z,17.50
2022-10-14T13:39:06.422Z,17.60
2022-10-14T13:41:53.065Z,17.60
2022-10-14T13:44:39.908Z,17.60
2022-10-14T13:47:28.426Z,17.60
2022-10-14T13:50:18.443Z,17.60
2022-10-14T13:53:10.358Z,17.70
2022-10-14T13:55:58.678Z,17.60
2022-10-14T13:58:45.370Z,17.60
2022-10-14T14:01:35.870Z,17.50
2022-10-14T14:04:26.923Z,17.50
2022-10-14T14:08:08.447Z,17.60
2022-10-14T14:10:25.876Z,17.60
2022-10-14T14:13:14.370Z,17.60
2022-10-14T14:16:00.824Z,17.60
2022-10-14T14:19:04.055Z,17.60
2022-10-14T14:22:07.359Z,17.50
2022-10-14T14:24:55.263Z,17.50
2022-10-14T14:27:48.707Z,17.40
2022-10-14T14:30:37.586Z,17.40
2022-10-14T14:33:30.373Z,17.30
2022-10-14T14:36:27.447Z,17.30
2022-10-14T14:39:26.364Z,17.40
2022-10-14T14:42:12.888Z,17.40
2022-10-14T14:45:04.203Z,17.40
2022-10-14T14:47:52.461Z,17.40
2022-10-14T14:50:43.395Z,17.40
2022-10-14T14:53:30.816Z,17.40
2022-10-14T14:56:24.104Z,17.40
2022-10-14T14:59:21.476Z,17.40
2022-10-14T15:02:14.997Z,17.40
2022-10-14T15:05:03.400Z,17.40
2022-10-14T15:07:50.928Z,17.30
2022-10-14T15:10:37.413Z,17.30
2022-10-14T15:13:47.814Z,17.40
2022-10-14T15:16:37.164Z,17.30
2022-10-14T15:19:34.098Z,17.30
2022-10-14T15:22:32.108Z,17.30
2022-10-14T15:25:31.363Z,17.30
2022-10-14T15:28:31.753Z,17.30
2022-10-14T15:31:18.279Z,17.30
2022-10-14T15:34:06.044Z,17.20
2022-10-14T15:36:54.163Z,17.20
2022-10-14T15:39:41.240Z,17.20
2022-10-14T15:42:27.667Z,17.10
2022-10-14T15:45:15.991Z,17.20
2022-10-14T15:48:06.066Z,17.10
2022-10-14T15:50:52.661Z,17.10
2022-10-14T15:53:39.152Z,17.10
2022-10-14T15:56:25.627Z,17.10
2022-10-14T15:59:12.289Z,17.10
2022-10-14T16:02:00.038Z,17.00
2022-10-14T16:05:07.321Z,16.90
2022-10-14T16:07:53.497Z,16.90
2022-10-14T16:10:40.027Z,16.80
2022-10-14T16:13:26.552Z,16.80
2022-10-14T16:16:14.552Z,16.70
2022-10-14T16:19:03.637Z,16.70
2022-10-14T16:21:50.895Z,16.70
2022-10-14T16:24:37.594Z,16.60
2022-10-14T16:27:24.748Z,16.60
2022-10-14T16:30:12.408Z,16.50
2022-10-14T16:32:58.795Z,16.50
2022-10-14T16:35:50.754Z,16.50
2022-10-14T16:38:37.524Z,16.40
2022-10-14T16:41:24.436Z,16.40
2022-10-14T16:44:24.704Z,16.30
2022-10-14T16:47:17.277Z,16.30
2022-10-14T16:50:04.389Z,16.30
2022-10-14T16:53:10.112Z,16.30
2022-10-14T16:55:58.112Z,16.20
2022-10-14T16:58:44.488Z,16.20
2022-10-14T17:01:31.711Z,16.10
2022-10-14T17:04:19.567Z,16.20
2022-10-14T17:07:08.840Z,16.20
2022-10-14T17:09:57.834Z,16.10
2022-10-14T17:12:44.459Z,16.10
2022-10-14T17:15:31.012Z,16.10
2022-10-14T17:18:17.981Z,16.10
2022-10-14T17:21:07.915Z,16.00
2022-10-14T17:23:54.864Z,16.00
2022-10-14T17:26:42.844Z,16.00
2022-10-14T17:29:29.516Z,16.00
2022-10-14T17:32:16.864Z,16.00
2022-10-14T17:35:03.883Z,16.00
2022-10-14T17:37:50.632Z,16.00
2022-10-14T17:40:37.364Z,16.00
2022-10-14T17:43:25.901Z,15.90
2022-10-14T17:46:13.655Z,15.90
2022-10-14T17:49:01.703Z,15.90
2022-10-14T17:51:48.736Z,15.90
2022-10-14T17:54:35.505Z,15.90
2022-10-14T17:57:21.999Z,15.90
2022-10-14T18:00:11.636Z,15.90
2022-10-14T18:02:58.195Z,15.90
2022-10-14T18:05:48.127Z,15.90
2022-10-14T18:08:35.713Z,15.90
2022-10-14T18:11:23.328Z,15.90
2022-10-14T18:14:13.624Z,15.90
2022-10-14T18:17:01.793Z,15.90
2022-10-14T18:19:52.226Z,15.90
2022-10-14T18:22:39.524Z,15.90
2022-10-14T18:25:25.893Z,15.90
2022-10-14T18:28:12.882Z,15.90
2022-10-14T18:31:04.805Z,15.90
2022-10-14T18:33:53.999Z,15.90
2022-10-14T18:36:40.678Z,15.80
2022-10-14T18:39:27.246Z,15.90
2022-10-14T18:42:17.120Z,15.90
2022-10-14T18:45:07.688Z,15.90
2022-10-14T18:47:54.114Z,15.80
2022-10-14T18:50:42.165Z,15.90
2022-10-14T18:53:31.198Z,15.80
2022-10-14T18:56:20.742Z,15.90
2022-10-14T18:59:09.203Z,15.90
2022-10-14T19:01:56.160Z,15.90
2022-10-14T19:04:43.087Z,15.80
2022-10-14T19:07:31.003Z,15.90
2022-10-14T19:10:17.699Z,15.90
2022-10-14T19:13:05.803Z,15.80
2022-10-14T19:16:00.981Z,15.90
2022-10-14T19:18:48.242Z,15.80
2022-10-14T19:21:34.913Z,15.80
2022-10-14T19:24:23.133Z,15.80
2022-10-14T19:27:09.793Z,15.80
2022-10-14T19:29:56.224Z,15.80
2022-10-14T19:32:42.695Z,15.80
2022-10-14T19:35:29.170Z,15.90
2022-10-14T19:38:15.714Z,15.90
2022-10-14T19:41:04.991Z,15.80
2022-10-14T19:43:53.466Z,15.90
2022-10-14T19:46:41.222Z,15.90
2022-10-14T19:49:27.680Z,15.80
2022-10-14T19:52:14.320Z,15.80
2022-10-14T19:55:00.724Z,15.80
2022-10-14T19:57:48.674Z,15.80
2022-10-14T20:00:36.631Z,15.80
2022-10-14T20:03:23.314Z,15.80
2022-10-14T20:06:11.424Z,15.80
2022-10-14T20:08:58.255Z,15.80
2022-10-14T20:11:45.860Z,15.80
2022-10-14T20:14:34.008Z,15.80
2022-10-14T20:17:20.671Z,15.80
2022-10-14T20:20:08.805Z,15.80
2022-10-14T20:22:55.277Z,15.80
2022-10-14T20:25:42.248Z,15.80
2022-10-14T20:28:29.139Z,15.80
2022-10-14T20:31:19.444Z,15.90
2022-10-14T20:34:10.446Z,15.80
2022-10-14T20:36:58.048Z,15.90
2022-10-14T20:39:44.633Z,15.80
2022-10-14T20:42:31.307Z,15.90
2022-10-14T20:45:18.090Z,15.90
2022-10-14T20:48:06.412Z,15.80
2022-10-14T20:50:53.225Z,15.80
2022-10-14T20:56:29.847Z,15.90
2022-10-14T20:59:16.640Z,15.90
2022-10-14T21:02:03.393Z,15.90
2022-10-14T21:04:52.159Z,15.90
2022-10-14T21:07:38.955Z,15.90
2022-10-14T21:10:25.451Z,15.90
2022-10-14T21:13:12.025Z,15.90
2022-10-14T21:15:58.830Z,15.90
2022-10-14T21:18:53.579Z,15.90
2022-10-14T21:21:46.155Z,15.80
2022-10-14T21:24:32.764Z,15.80
2022-10-14T21:27:19.381Z,15.90
2022-10-14T21:30:06.698Z,15.90
2022-10-14T21:32:53.201Z,15.80
2022-10-14T21:35:39.755Z,15.80
2022-10-14T21:38:29.886Z,15.90
2022-10-14T21:41:16.687Z,15.80
2022-10-14T21:44:03.762Z,15.70
2022-10-14T21:46:50.449Z,15.80
2022-10-14T21:49:37.187Z,15.70
2022-10-14T21:52:24.053Z,15.70
2022-10-14T21:55:12.529Z,15.80
2022-10-14T21:57:59.381Z,15.80
2022-10-14T22:00:45.778Z,15.80
2022-10-14T22:03:32.755Z,15.80
2022-10-14T22:06:19.286Z,15.70
2022-10-14T22:09:08.116Z,15.80
2022-10-14T22:11:56.004Z,15.80
2022-10-14T22:14:42.902Z,15.80
2022-10-14T22:17:29.402Z,15.80
2022-10-14T22:20:16.048Z,15.70
2022-10-14T22:23:03.117Z,15.70
2022-10-14T22:25:49.517Z,15.80
2022-10-14T22:28:37.591Z,15.80
2022-10-14T22:31:24.358Z,15.80
2022-10-14T22:34:13.207Z,15.80
2022-10-14T22:37:01.630Z,15.60
2022-10-14T22:39:48.160Z,15.60
2022-10-14T22:42:36.868Z,15.70
2022-10-14T22:45:27.063Z,15.70
2022-10-14T22:48:13.748Z,15.70
2022-10-14T22:51:06.000Z,15.70
2022-10-14T22:53:52.859Z,15.70
2022-10-14T22:56:40.444Z,15.70
2022-10-14T22:59:26.994Z,15.70
2022-10-14T23:02:14.693Z,15.60
2022-10-14T23:05:01.483Z,15.50
2022-10-14T23:07:48.421Z,15.50
2022-10-14T23:10:34.823Z,15.50
2022-10-14T23:13:21.355Z,15.50
2022-10-14T23:16:11.252Z,15.50
2022-10-14T23:18:59.910Z,15.50
2022-10-14T23:21:46.404Z,15.40
2022-10-14T23:24:32.981Z,15.30
2022-10-14T23:27:19.437Z,15.30
2022-10-14T23:30:07.423Z,15.30
2022-10-14T23:32:54.123Z,15.20
2022-10-14T23:35:41.930Z,15.20
2022-10-14T23:38:28.683Z,15.20
2022-10-14T23:41:15.794Z,15.10
2022-10-14T23:44:03.210Z,15.10
2022-10-14T23:46:50.348Z,15.10
2022-10-14T23:49:36.728Z,15.00
2022-10-14T23:52:24.663Z,15.10
2022-10-14T23:55:11.478Z,15.00
2022-10-14T23:57:58.203Z,15.00
